createdAt,value
2019-05-29T00:01:31.808Z,10.30
2019-05-29T00:04:02.002Z,10.75
2019-05-29T00:06:32.183Z,11.55
2019-05-29T00:09:02.525Z,11.38
2019-05-29T00:11:46.599Z,13.07
2019-05-29T00:14:26.915Z,11.33
2019-05-29T00:16:49.779Z,12.18
2019-05-29T00:19:19.767Z,12.23
2019-05-29T00:21:49.812Z,13.13
2019-05-29T00:24:21.045Z,13.75
2019-05-29T00:26:52.674Z,13.15
2019-05-29T00:29:22.831Z,13.93
2019-05-29T00:31:53.888Z,13.10
2019-05-29T00:34:23.897Z,12.93
2019-05-29T00:36:54.024Z,12.68
2019-05-29T00:39:23.976Z,12.40
2019-05-29T00:41:54.015Z,11.85
2019-05-29T00:46:56.136Z,11.85
2019-05-29T00:49:26.200Z,13.05
2019-05-29T00:51:56.212Z,11.90
2019-05-29T00:54:26.328Z,11.85
2019-05-29T00:56:56.336Z,13.48
2019-05-29T00:59:26.447Z,11.88
2019-05-29T01:01:56.496Z,12.00
2019-05-29T01:04:26.548Z,13.72
2019-05-29T01:06:56.683Z,13.08
2019-05-29T01:11:56.960Z,12.15
2019-05-29T01:14:26.990Z,12.05
2019-05-29T01:16:57.038Z,11.65
2019-05-29T01:19:27.158Z,12.47
2019-05-29T01:21:58.105Z,12.95
2019-05-29T01:24:28.120Z,12.88
2019-05-29T01:26:58.235Z,13.15
2019-05-29T01:29:28.288Z,11.10
2019-05-29T01:31:58.267Z,12.13
2019-05-29T01:34:28.382Z,11.25
2019-05-29T01:36:58.504Z,11.10
2019-05-29T01:39:28.559Z,12.00
2019-05-29T01:41:58.603Z,10.05
2019-05-29T01:44:28.619Z,8.45
2019-05-29T01:46:58.659Z,6.97
2019-05-29T01:49:28.608Z,5.47
2019-05-29T01:51:58.722Z,4.92
2019-05-29T01:54:28.723Z,4.53
2019-05-29T01:56:58.763Z,4.12
2019-05-29T01:59:28.792Z,3.58
2019-05-29T02:01:58.772Z,2.85
2019-05-29T02:04:28.880Z,2.45
2019-05-29T02:06:58.936Z,1.70
2019-05-29T02:09:29.064Z,1.50
2019-05-29T02:11:59.067Z,1.60
2019-05-29T02:14:29.123Z,1.22
2019-05-29T02:16:59.223Z,1.25
2019-05-29T02:19:29.339Z,1.05
2019-05-29T02:21:59.375Z,1.10
2019-05-29T02:24:29.457Z,0.70
2019-05-29T02:26:59.559Z,0.80
2019-05-29T02:29:29.623Z,1.20
2019-05-29T02:31:59.675Z,1.20
2019-05-29T02:34:30.038Z,0.88
2019-05-29T02:37:00.332Z,0.72
2019-05-29T02:39:30.333Z,0.60
2019-05-29T02:42:00.458Z,0.47
2019-05-29T02:44:30.532Z,0.62
2019-05-29T02:47:00.633Z,1.02
2019-05-29T02:49:30.663Z,0.50
2019-05-29T02:52:00.733Z,2.92
2019-05-29T02:54:32.213Z,0.85
2019-05-29T02:57:02.463Z,0.70
2019-05-29T02:59:32.573Z,0.80
2019-05-29T03:02:02.613Z,0.65
2019-05-29T03:04:33.779Z,0.60
2019-05-29T03:07:03.987Z,0.40
2019-05-29T03:09:34.061Z,0.68
2019-05-29T03:12:04.281Z,0.45
2019-05-29T03:14:34.834Z,0.72
2019-05-29T03:17:06.389Z,0.78
2019-05-29T03:19:36.466Z,0.55
2019-05-29T03:22:06.568Z,0.72
2019-05-29T03:24:36.640Z,1.17
2019-05-29T03:27:06.613Z,1.27
2019-05-29T03:29:38.315Z,1.12
2019-05-29T03:32:13.713Z,0.60
2019-05-29T03:34:46.437Z,0.85
2019-05-29T03:37:11.404Z,0.60
2019-05-29T03:39:41.475Z,0.65
2019-05-29T03:42:12.600Z,0.60
2019-05-29T03:44:42.601Z,0.85
2019-05-29T03:47:12.559Z,0.82
2019-05-29T03:49:42.588Z,0.70
2019-05-29T03:52:12.655Z,0.93
2019-05-29T03:54:42.621Z,0.72
2019-05-29T03:57:12.623Z,0.60
2019-05-29T03:59:42.736Z,0.85
2019-05-29T04:02:13.409Z,0.60
2019-05-29T04:04:43.448Z,0.80
2019-05-29T04:07:13.449Z,0.80
2019-05-29T04:09:43.484Z,1.10
2019-05-29T04:12:13.580Z,0.70
2019-05-29T04:14:43.653Z,0.70
2019-05-29T04:17:14.368Z,1.95
2019-05-29T04:19:56.923Z,1.32
2019-05-29T04:22:30.431Z,1.00
2019-05-29T04:25:03.621Z,1.17
2019-05-29T04:27:36.063Z,1.32
2019-05-29T04:30:08.243Z,1.65
2019-05-29T04:32:38.720Z,1.35
2019-05-29T04:35:09.045Z,1.90
2019-05-29T04:40:10.227Z,1.90
2019-05-29T04:42:40.400Z,1.42
2019-05-29T04:45:11.572Z,1.50
2019-05-29T04:47:41.576Z,1.37
2019-05-29T04:50:11.775Z,1.22
2019-05-29T04:52:41.780Z,1.20
2019-05-29T04:55:24.462Z,1.45
2019-05-29T04:57:54.532Z,1.52
2019-05-29T05:00:24.583Z,1.80
2019-05-29T05:02:54.548Z,2.30
2019-05-29T05:05:24.545Z,1.50
2019-05-29T05:07:54.580Z,1.32
2019-05-29T05:10:40.869Z,1.55
2019-05-29T05:13:10.860Z,1.70
2019-05-29T05:15:41.437Z,1.60
2019-05-29T05:18:11.544Z,2.08
2019-05-29T05:20:41.624Z,1.92
2019-05-29T05:23:11.680Z,1.75
2019-05-29T05:25:41.712Z,1.50
2019-05-29T05:28:11.884Z,1.87
2019-05-29T05:30:41.989Z,2.20
2019-05-29T05:33:12.185Z,2.45
2019-05-29T05:35:42.264Z,3.22
2019-05-29T05:38:12.263Z,2.02
2019-05-29T05:40:43.288Z,2.50
2019-05-29T05:45:44.361Z,2.25
2019-05-29T05:48:14.444Z,2.50
2019-05-29T05:50:44.560Z,2.40
2019-05-29T05:53:14.628Z,1.75
2019-05-29T05:55:44.724Z,2.62
2019-05-29T05:58:14.831Z,2.17
2019-05-29T06:00:44.902Z,2.05
2019-05-29T06:03:15.000Z,2.20
2019-05-29T06:05:45.133Z,2.08
2019-05-29T06:08:15.233Z,2.37
2019-05-29T06:10:45.342Z,2.00
2019-05-29T06:13:15.441Z,1.82
2019-05-29T06:15:45.513Z,2.30
2019-05-29T06:18:21.090Z,1.57
2019-05-29T06:20:47.080Z,1.60
2019-05-29T06:23:17.140Z,1.37
2019-05-29T06:25:47.248Z,1.25
2019-05-29T06:28:17.285Z,1.32
2019-05-29T06:30:47.387Z,0.85
2019-05-29T06:33:17.360Z,1.00
2019-05-29T06:35:47.423Z,0.85
2019-05-29T06:38:17.532Z,1.72
2019-05-29T06:40:47.644Z,1.12
2019-05-29T06:43:25.325Z,0.93
2019-05-29T06:45:56.204Z,1.05
2019-05-29T06:48:42.778Z,0.90
2019-05-29T06:50:59.563Z,0.75
2019-05-29T06:53:29.731Z,0.90
2019-05-29T06:56:01.731Z,0.90
2019-05-29T06:58:32.199Z,0.98
2019-05-29T07:01:02.203Z,1.07
2019-05-29T07:03:32.168Z,1.10
2019-05-29T07:06:02.310Z,1.02
2019-05-29T07:08:38.692Z,1.75
2019-05-29T07:11:03.993Z,0.47
2019-05-29T07:13:36.084Z,0.50
2019-05-29T07:16:06.499Z,0.65
2019-05-29T07:18:38.606Z,0.37
2019-05-29T07:21:08.904Z,0.50
2019-05-29T07:23:38.999Z,0.37
2019-05-29T07:26:09.143Z,0.33
2019-05-29T07:28:58.826Z,1.50
2019-05-29T07:31:12.111Z,0.65
2019-05-29T07:33:43.178Z,0.70
2019-05-29T07:36:13.455Z,0.45
2019-05-29T07:38:45.972Z,1.05
2019-05-29T07:41:15.300Z,0.82
2019-05-29T07:43:45.935Z,0.75
2019-05-29T07:46:16.027Z,0.57
2019-05-29T07:48:48.036Z,0.78
2019-05-29T07:51:17.834Z,0.65
2019-05-29T07:53:48.812Z,0.98
2019-05-29T07:56:23.027Z,1.10
2019-05-29T07:59:01.741Z,1.20
2019-05-29T08:01:24.084Z,1.00
2019-05-29T08:03:54.252Z,0.78
2019-05-29T08:06:24.319Z,0.82
2019-05-29T08:08:54.283Z,0.80
2019-05-29T08:11:25.488Z,1.72
2019-05-29T08:13:55.523Z,1.67
2019-05-29T08:16:25.564Z,1.35
2019-05-29T08:18:56.716Z,1.10
2019-05-29T08:21:26.635Z,2.33
2019-05-29T08:23:56.749Z,1.30
2019-05-29T08:26:26.889Z,0.80
2019-05-29T08:28:56.873Z,0.80
2019-05-29T08:31:26.881Z,1.02
2019-05-29T08:33:56.844Z,1.22
2019-05-29T08:36:26.817Z,0.95
2019-05-29T08:38:56.822Z,0.50
2019-05-29T08:41:26.917Z,0.50
2019-05-29T08:43:56.928Z,0.80
2019-05-29T08:46:27.021Z,0.80
2019-05-29T08:48:56.943Z,0.50
2019-05-29T08:51:26.985Z,0.68
2019-05-29T08:53:57.107Z,0.78
2019-05-29T08:56:27.036Z,0.53
2019-05-29T08:58:56.995Z,0.72
2019-05-29T09:01:27.127Z,1.20
2019-05-29T09:03:57.128Z,1.35
2019-05-29T09:06:27.171Z,0.90
2019-05-29T09:08:57.171Z,1.50
2019-05-29T09:14:27.661Z,0.80
2019-05-29T09:17:18.505Z,0.60
2019-05-29T09:19:48.641Z,0.80
2019-05-29T09:44:00.307Z,0.70
2019-05-29T09:46:30.696Z,0.53
2019-05-29T09:49:23.955Z,0.90
2019-05-29T09:52:11.102Z,1.20
2019-05-29T09:55:09.791Z,1.10
2019-05-29T09:57:44.966Z,1.37
2019-05-29T10:00:41.261Z,1.37
2019-05-29T10:03:26.576Z,0.90
2019-05-29T10:06:29.949Z,1.27
2019-05-29T10:09:01.636Z,1.20
2019-05-29T10:21:39.078Z,0.80
2019-05-29T10:26:55.600Z,1.27
2019-05-29T10:29:39.008Z,1.30
2019-05-29T10:32:16.745Z,1.30
2019-05-29T10:35:05.147Z,1.67
2019-05-29T10:38:03.544Z,1.35
2019-05-29T10:40:33.850Z,1.30
2019-05-29T10:49:12.728Z,1.22
2019-05-29T10:58:27.472Z,1.27
2019-05-29T11:01:02.251Z,1.75
2019-05-29T11:03:36.342Z,1.47
2019-05-29T11:07:45.719Z,1.45
2019-05-29T11:09:09.765Z,1.60
2019-05-29T11:11:42.785Z,1.52
2019-05-29T11:14:16.989Z,1.80
2019-05-29T11:16:50.924Z,1.60
2019-05-29T11:19:26.106Z,1.55
2019-05-29T11:22:05.849Z,1.57
2019-05-29T11:24:34.369Z,1.62
2019-05-29T11:27:08.675Z,1.82
2019-05-29T11:29:41.970Z,1.62
2019-05-29T11:32:15.568Z,1.60
2019-05-29T11:34:48.909Z,1.62
2019-05-29T11:37:22.463Z,1.32
2019-05-29T11:39:56.755Z,1.60
2019-05-29T11:42:29.803Z,1.15
2019-05-29T11:45:03.783Z,1.40
2019-05-29T11:47:37.171Z,1.25
2019-05-29T11:50:19.527Z,1.15
2019-05-29T11:52:50.311Z,1.20
2019-05-29T11:55:23.809Z,1.20
2019-05-29T11:57:57.837Z,1.57
2019-05-29T12:00:31.439Z,1.40
2019-05-29T12:03:04.429Z,1.30
2019-05-29T12:05:37.598Z,1.10
2019-05-29T12:08:11.320Z,1.05
2019-05-29T12:10:44.490Z,1.20
2019-05-29T12:13:18.396Z,1.30
2019-05-29T12:15:49.151Z,0.80
2019-05-29T12:18:24.047Z,1.30
2019-05-29T12:20:52.096Z,0.98
2019-05-29T12:26:12.592Z,0.77
2019-05-29T12:28:24.581Z,1.40
2019-05-29T12:30:55.133Z,0.93
2019-05-29T12:33:25.292Z,0.93
2019-05-29T12:35:55.328Z,1.35
2019-05-29T12:38:25.347Z,1.47
2019-05-29T12:40:55.375Z,1.15
2019-05-29T12:43:27.649Z,2.15
2019-05-29T12:45:57.757Z,1.30
2019-05-29T12:48:29.144Z,1.30
2019-05-29T12:53:31.275Z,1.10
2019-05-29T12:56:02.550Z,0.78
2019-05-29T12:58:32.724Z,0.93
2019-05-29T13:01:03.140Z,3.27
2019-05-29T13:03:35.163Z,1.55
2019-05-29T13:06:05.305Z,0.90
2019-05-29T13:08:35.268Z,1.00
2019-05-29T13:11:05.372Z,0.90
2019-05-29T13:13:35.813Z,1.33
2019-05-29T13:16:05.922Z,0.82
2019-05-29T13:18:35.924Z,1.00
2019-05-29T13:21:06.046Z,0.75
2019-05-29T13:23:44.648Z,1.52
2019-05-29T13:26:07.775Z,1.00
2019-05-29T13:28:38.730Z,1.20
2019-05-29T13:31:08.704Z,0.95
2019-05-29T13:33:38.842Z,1.30
2019-05-29T13:36:08.912Z,0.90
2019-05-29T13:38:39.548Z,0.80
2019-05-29T13:41:09.724Z,1.10
2019-05-29T13:43:39.868Z,1.12
2019-05-29T13:46:09.870Z,1.17
2019-05-29T13:48:39.909Z,0.80
2019-05-29T13:51:09.875Z,1.10
2019-05-29T13:53:39.916Z,0.98
2019-05-29T13:56:09.948Z,1.22
2019-05-29T13:58:40.092Z,1.15
2019-05-29T14:01:10.159Z,1.00
2019-05-29T14:03:40.275Z,0.80
2019-05-29T14:06:10.347Z,1.15
2019-05-29T14:08:40.324Z,0.90
2019-05-29T14:11:35.374Z,1.30
2019-05-29T14:20:23.332Z,1.17
2019-05-29T14:22:53.511Z,1.20
2019-05-29T14:25:24.115Z,1.15
2019-05-29T14:28:04.499Z,0.90
2019-05-29T14:30:35.858Z,0.83
2019-05-29T14:39:05.790Z,1.02
2019-05-29T14:44:54.966Z,0.65
2019-05-29T14:51:21.766Z,0.88
2019-05-29T14:57:19.576Z,1.57
2019-05-29T14:59:59.374Z,1.30
2019-05-29T15:06:18.436Z,1.00
2019-05-29T15:12:12.118Z,1.20
2019-05-29T15:14:42.325Z,1.15
2019-05-29T15:17:13.064Z,1.25
2019-05-29T15:19:43.203Z,0.70
2019-05-29T15:22:14.112Z,1.20
2019-05-29T15:25:01.558Z,0.53
2019-05-29T15:27:17.629Z,0.40
2019-05-29T15:29:47.734Z,0.62
2019-05-29T15:32:17.794Z,0.50
2019-05-29T15:34:47.935Z,0.60
2019-05-29T15:37:18.923Z,0.82
2019-05-29T15:39:49.011Z,0.47
2019-05-29T15:42:19.114Z,0.50
2019-05-29T15:44:49.586Z,0.37
2019-05-29T15:47:19.627Z,0.30
2019-05-29T15:49:49.637Z,0.40
2019-05-29T15:52:19.748Z,0.60
2019-05-29T15:54:49.764Z,0.45
2019-05-29T15:57:19.865Z,0.40
2019-05-29T15:59:49.896Z,0.47
2019-05-29T16:02:19.968Z,0.53
2019-05-29T16:04:50.079Z,0.40
2019-05-29T16:07:20.080Z,0.33
2019-05-29T16:09:50.117Z,0.60
2019-05-29T16:12:36.114Z,0.45
2019-05-29T16:15:09.100Z,0.98
2019-05-29T16:17:48.437Z,0.62
2019-05-29T16:20:20.381Z,1.70
2019-05-29T16:25:37.295Z,0.75
2019-05-29T16:27:56.321Z,1.07
2019-05-29T16:30:33.960Z,0.95
2019-05-29T16:33:07.199Z,1.80
2019-05-29T16:35:38.301Z,1.70
2019-05-29T16:38:13.914Z,1.50
2019-05-29T16:40:43.941Z,1.10
2019-05-29T16:43:14.086Z,0.65
2019-05-29T16:45:44.384Z,0.47
2019-05-29T16:48:14.959Z,0.95
2019-05-29T16:50:58.899Z,1.10
2019-05-29T16:53:29.202Z,0.55
2019-05-29T16:56:09.607Z,0.75
2019-05-29T16:58:53.323Z,1.62
2019-05-29T17:01:23.994Z,0.95
2019-05-29T17:03:59.488Z,0.70
2019-05-29T17:06:31.915Z,0.70
2019-05-29T17:09:11.763Z,0.50
2019-05-29T17:11:41.719Z,0.65
2019-05-29T17:14:11.819Z,0.60
2019-05-29T17:16:42.227Z,0.70
2019-05-29T17:19:12.305Z,0.93
2019-05-29T17:21:42.348Z,0.65
2019-05-29T17:24:12.421Z,1.25
2019-05-29T17:26:42.531Z,1.70
2019-05-29T17:29:12.604Z,1.40
2019-05-29T17:31:42.712Z,1.10
2019-05-29T17:34:12.787Z,1.07
2019-05-29T17:36:42.956Z,0.90
2019-05-29T17:39:13.029Z,0.60
2019-05-29T17:41:43.057Z,0.72
2019-05-29T17:44:13.131Z,0.70
2019-05-29T17:46:43.242Z,0.68
2019-05-29T17:49:13.281Z,0.40
2019-05-29T17:51:43.409Z,0.80
2019-05-29T17:54:13.572Z,0.47
2019-05-29T17:56:43.581Z,0.60
2019-05-29T17:59:13.708Z,0.90
2019-05-29T18:01:43.784Z,1.20
2019-05-29T18:04:13.951Z,0.80
2019-05-29T18:06:45.025Z,1.05
2019-05-29T18:09:15.128Z,1.80
2019-05-29T18:11:47.345Z,1.40
2019-05-29T18:14:17.387Z,1.05
2019-05-29T18:16:47.443Z,1.47
2019-05-29T18:19:17.616Z,1.42
2019-05-29T18:21:47.623Z,1.07
2019-05-29T18:24:17.733Z,1.30
2019-05-29T18:26:47.672Z,1.50
2019-05-29T18:29:18.062Z,1.55
2019-05-29T18:31:48.010Z,1.50
2019-05-29T18:34:18.777Z,1.32
2019-05-29T18:36:48.958Z,1.30
2019-05-29T18:39:20.187Z,1.57
2019-05-29T18:41:50.381Z,1.42
2019-05-29T18:44:20.748Z,1.52
2019-05-29T18:46:50.768Z,1.50
2019-05-29T18:49:22.159Z,1.12
2019-05-29T18:54:21.615Z,1.45
2019-05-29T18:57:13.949Z,1.50
2019-05-29T18:59:23.518Z,1.30
2019-05-29T19:01:53.652Z,1.52
2019-05-29T19:04:23.742Z,1.52
2019-05-29T19:06:53.816Z,1.37
2019-05-29T19:09:23.975Z,1.75
2019-05-29T19:47:02.199Z,1.60
2019-05-29T19:56:47.473Z,1.50
2019-05-29T19:59:23.955Z,1.50
2019-05-29T20:01:57.886Z,2.12
2019-05-29T20:08:01.109Z,2.40
2019-05-29T20:13:51.069Z,2.02
2019-05-29T20:16:21.123Z,2.00
2019-05-29T20:18:51.239Z,1.72
2019-05-29T20:21:21.282Z,1.65
2019-05-29T20:23:51.522Z,1.62
2019-05-29T20:26:21.659Z,1.85
2019-05-29T20:28:51.732Z,1.50
2019-05-29T20:31:21.953Z,1.87
2019-05-29T20:33:51.988Z,2.02
2019-05-29T20:36:22.130Z,1.55
2019-05-29T20:38:52.167Z,1.82
2019-05-29T20:41:22.321Z,1.62
2019-05-29T20:43:53.335Z,2.22
2019-05-29T20:46:23.411Z,2.10
2019-05-29T20:48:53.337Z,2.10
2019-05-29T20:51:23.447Z,1.60
2019-05-29T20:53:53.487Z,2.12
2019-05-29T20:56:23.600Z,1.85
2019-05-29T20:58:53.727Z,1.75
2019-05-29T21:01:23.909Z,1.60
2019-05-29T21:03:55.410Z,1.62
2019-05-29T21:06:25.786Z,1.42
2019-05-29T21:08:56.159Z,1.40
2019-05-29T21:11:26.249Z,1.70
2019-05-29T21:13:56.297Z,1.52
2019-05-29T21:16:26.377Z,1.87
2019-05-29T21:18:56.442Z,1.62
2019-05-29T21:21:26.481Z,1.65
2019-05-29T21:23:56.541Z,3.58
2019-05-29T21:26:27.436Z,1.90
2019-05-29T21:28:57.504Z,1.72
2019-05-29T21:31:27.567Z,1.65
2019-05-29T21:33:57.766Z,2.33
2019-05-29T21:36:27.804Z,2.47
2019-05-29T21:38:57.726Z,2.05
2019-05-29T21:41:29.272Z,2.15
2019-05-29T21:43:59.299Z,2.35
2019-05-29T21:46:29.374Z,1.90
2019-05-29T21:48:59.420Z,2.47
2019-05-29T21:51:29.425Z,2.47
2019-05-29T21:53:59.460Z,2.15
2019-05-29T21:56:29.571Z,2.10
2019-05-29T21:59:04.035Z,2.35
2019-05-29T22:01:32.481Z,2.17
2019-05-29T22:04:02.516Z,2.67
2019-05-29T22:06:32.688Z,2.00
2019-05-29T22:09:05.264Z,2.85
2019-05-29T22:11:35.436Z,2.42
2019-05-29T22:14:05.504Z,2.05
2019-05-29T22:16:35.676Z,2.42
2019-05-29T22:19:05.855Z,2.30
2019-05-29T22:21:35.956Z,2.45
2019-05-29T22:24:06.029Z,2.62
2019-05-29T22:26:36.059Z,2.52
2019-05-29T22:29:17.942Z,2.55
2019-05-29T22:31:38.020Z,2.60
2019-05-29T22:34:08.088Z,2.75
2019-05-29T22:36:38.124Z,2.87
2019-05-29T22:39:08.228Z,2.90
2019-05-29T22:41:38.299Z,2.42
2019-05-29T22:44:08.404Z,2.52
2019-05-29T22:46:38.440Z,2.47
2019-05-29T22:49:08.508Z,2.37
2019-05-29T22:51:38.609Z,2.47
2019-05-29T22:54:08.707Z,2.85
2019-05-29T22:56:39.174Z,2.67
2019-05-29T22:59:09.140Z,2.50
2019-05-29T23:01:40.112Z,3.25
2019-05-29T23:04:10.143Z,2.65
2019-05-29T23:06:40.140Z,2.52
2019-05-29T23:09:10.433Z,2.65
2019-05-29T23:11:42.837Z,2.80
2019-05-29T23:14:13.524Z,3.15
2019-05-29T23:16:43.543Z,2.80
2019-05-29T23:19:13.535Z,2.90
2019-05-29T23:21:43.580Z,3.10
2019-05-29T23:24:13.525Z,3.22
2019-05-29T23:26:43.631Z,3.25
2019-05-29T23:29:13.735Z,3.20
2019-05-29T23:31:43.845Z,3.00
2019-05-29T23:34:13.955Z,3.58
2019-05-29T23:36:43.891Z,3.55
2019-05-29T23:39:13.928Z,3.55
2019-05-29T23:41:43.964Z,3.00
2019-05-29T23:44:14.072Z,3.25
2019-05-29T23:46:44.111Z,4.37
2019-05-29T23:49:14.178Z,3.58
2019-05-29T23:51:44.219Z,3.52
2019-05-29T23:54:14.139Z,3.67
2019-05-29T23:56:44.256Z,3.37
2019-05-29T23:59:14.319Z,3.08
